sensor_id;sensor_type;location;lat;lon;timestamp;P1;durP1;ratioP1;P2;durP2;ratioP2
23175;SDS011;19910;42.652;23.332;2023-05-15T00:00:44;8.75;;;4.68;;
23175;SDS011;19910;42.652;23.332;2023-05-15T00:03:11;8.10;;;4.82;;
23175;SDS011;19910;42.652;23.332;2023-05-15T00:05:38;7.15;;;4.57;;
23175;SDS011;19910;42.652;23.332;2023-05-15T00:08:06;6.63;;;3.55;;
23175;SDS011;19910;42.652;23.332;2023-05-15T00:10:33;6.60;;;4.53;;
23175;SDS011;19910;42.652;23.332;2023-05-15T00:13:00;4.93;;;3.40;;
23175;SDS011;19910;42.652;23.332;2023-05-15T00:15:26;10.65;;;3.22;;
23175;SDS011;19910;42.652;23.332;2023-05-15T00:17:53;6.07;;;3.83;;
23175;SDS011;19910;42.652;23.332;2023-05-15T00:20:20;4.60;;;2.92;;
23175;SDS011;19910;42.652;23.332;2023-05-15T00:22:47;6.53;;;3.85;;
23175;SDS011;19910;42.652;23.332;2023-05-15T00:25:15;5.60;;;4.00;;
23175;SDS011;19910;42.652;23.332;2023-05-15T00:27:43;5.30;;;3.88;;
23175;SDS011;19910;42.652;23.332;2023-05-15T00:30:10;6.80;;;4.40;;
23175;SDS011;19910;42.652;23.332;2023-05-15T00:32:38;6.72;;;3.78;;
23175;SDS011;19910;42.652;23.332;2023-05-15T00:35:05;5.50;;;4.00;;
23175;SDS011;19910;42.652;23.332;2023-05-15T00:37:32;8.40;;;5.07;;
23175;SDS011;19910;42.652;23.332;2023-05-15T00:39:59;5.93;;;4.13;;
23175;SDS011;19910;42.652;23.332;2023-05-15T00:42:27;6.32;;;4.00;;
23175;SDS011;19910;42.652;23.332;2023-05-15T00:44:54;5.90;;;3.83;;
23175;SDS011;19910;42.652;23.332;2023-05-15T00:47:22;10.55;;;4.63;;
23175;SDS011;19910;42.652;23.332;2023-05-15T00:49:51;6.32;;;4.13;;
23175;SDS011;19910;42.652;23.332;2023-05-15T00:52:19;6.82;;;4.07;;
23175;SDS011;19910;42.652;23.332;2023-05-15T00:54:46;5.93;;;4.35;;
23175;SDS011;19910;42.652;23.332;2023-05-15T00:57:13;5.82;;;4.05;;
23175;SDS011;19910;42.652;23.332;2023-05-15T00:59:42;5.82;;;3.95;;
23175;SDS011;19910;42.652;23.332;2023-05-15T01:02:11;9.00;;;4.55;;
23175;SDS011;19910;42.652;23.332;2023-05-15T01:04:41;5.80;;;4.40;;
23175;SDS011;19910;42.652;23.332;2023-05-15T01:07:07;6.80;;;4.30;;
23175;SDS011;19910;42.652;23.332;2023-05-15T01:09:34;6.88;;;4.75;;
23175;SDS011;19910;42.652;23.332;2023-05-15T01:12:04;8.27;;;4.78;;
23175;SDS011;19910;42.652;23.332;2023-05-15T01:14:32;7.97;;;4.22;;
23175;SDS011;19910;42.652;23.332;2023-05-15T01:17:01;6.97;;;4.93;;
23175;SDS011;19910;42.652;23.332;2023-05-15T01:19:28;6.32;;;4.72;;
23175;SDS011;19910;42.652;23.332;2023-05-15T01:22:08;7.20;;;4.55;;
23175;SDS011;19910;42.652;23.332;2023-05-15T01:24:56;8.20;;;5.07;;
23175;SDS011;19910;42.652;23.332;2023-05-15T01:27:43;7.28;;;5.07;;
23175;SDS011;19910;42.652;23.332;2023-05-15T01:30:16;7.72;;;5.07;;
23175;SDS011;19910;42.652;23.332;2023-05-15T01:32:50;7.18;;;5.05;;
23175;SDS011;19910;42.652;23.332;2023-05-15T01:35:26;7.38;;;4.97;;
23175;SDS011;19910;42.652;23.332;2023-05-15T01:37:58;7.63;;;4.97;;
23175;SDS011;19910;42.652;23.332;2023-05-15T01:40:38;6.93;;;4.35;;
23175;SDS011;19910;42.652;23.332;2023-05-15T01:43:08;7.63;;;5.28;;
23175;SDS011;19910;42.652;23.332;2023-05-15T01:45:40;10.35;;;4.78;;
23175;SDS011;19910;42.652;23.332;2023-05-15T01:48:08;9.10;;;5.18;;
23175;SDS011;19910;42.652;23.332;2023-05-15T01:50:39;7.72;;;5.15;;
23175;SDS011;19910;42.652;23.332;2023-05-15T01:53:07;8.32;;;5.07;;
23175;SDS011;19910;42.652;23.332;2023-05-15T01:55:35;6.25;;;4.35;;
23175;SDS011;19910;42.652;23.332;2023-05-15T01:58:04;7.82;;;4.75;;
23175;SDS011;19910;42.652;23.332;2023-05-15T02:00:32;11.95;;;5.72;;
23175;SDS011;19910;42.652;23.332;2023-05-15T02:03:00;9.43;;;6.18;;
23175;SDS011;19910;42.652;23.332;2023-05-15T02:05:28;9.02;;;5.40;;
23175;SDS011;19910;42.652;23.332;2023-05-15T02:07:55;8.23;;;5.82;;
23175;SDS011;19910;42.652;23.332;2023-05-15T02:10:23;9.40;;;5.68;;
23175;SDS011;19910;42.652;23.332;2023-05-15T02:12:51;10.85;;;6.38;;
23175;SDS011;19910;42.652;23.332;2023-05-15T02:15:18;11.32;;;6.65;;
23175;SDS011;19910;42.652;23.332;2023-05-15T02:17:48;8.98;;;5.75;;
23175;SDS011;19910;42.652;23.332;2023-05-15T02:20:15;6.95;;;5.25;;
23175;SDS011;19910;42.652;23.332;2023-05-15T02:22:42;9.32;;;6.45;;
23175;SDS011;19910;42.652;23.332;2023-05-15T02:25:08;15.32;;;5.93;;
23175;SDS011;19910;42.652;23.332;2023-05-15T02:27:37;9.13;;;5.88;;
23175;SDS011;19910;42.652;23.332;2023-05-15T02:30:13;8.77;;;5.43;;
23175;SDS011;19910;42.652;23.332;2023-05-15T02:32:53;10.00;;;6.32;;
23175;SDS011;19910;42.652;23.332;2023-05-15T02:35:31;11.25;;;6.07;;
23175;SDS011;19910;42.652;23.332;2023-05-15T02:38:04;12.13;;;6.00;;
23175;SDS011;19910;42.652;23.332;2023-05-15T02:40:35;9.20;;;5.80;;
23175;SDS011;19910;42.652;23.332;2023-05-15T02:43:03;11.48;;;6.15;;
23175;SDS011;19910;42.652;23.332;2023-05-15T02:45:30;9.77;;;6.82;;
23175;SDS011;19910;42.652;23.332;2023-05-15T02:48:00;12.77;;;7.80;;
23175;SDS011;19910;42.652;23.332;2023-05-15T02:50:27;12.23;;;8.07;;
23175;SDS011;19910;42.652;23.332;2023-05-15T02:53:00;13.60;;;7.72;;
23175;SDS011;19910;42.652;23.332;2023-05-15T02:55:27;11.60;;;7.47;;
23175;SDS011;19910;42.652;23.332;2023-05-15T02:57:54;13.23;;;8.43;;
23175;SDS011;19910;42.652;23.332;2023-05-15T03:00:21;12.82;;;8.05;;
23175;SDS011;19910;42.652;23.332;2023-05-15T03:02:48;11.75;;;6.75;;
23175;SDS011;19910;42.652;23.332;2023-05-15T03:05:16;11.73;;;6.93;;
23175;SDS011;19910;42.652;23.332;2023-05-15T03:07:43;13.82;;;7.50;;
23175;SDS011;19910;42.652;23.332;2023-05-15T03:10:10;12.07;;;8.05;;
23175;SDS011;19910;42.652;23.332;2023-05-15T03:12:37;10.73;;;7.32;;
23175;SDS011;19910;42.652;23.332;2023-05-15T03:15:04;13.93;;;7.85;;
23175;SDS011;19910;42.652;23.332;2023-05-15T03:17:32;12.93;;;6.95;;
23175;SDS011;19910;42.652;23.332;2023-05-15T03:19:59;10.57;;;6.55;;
23175;SDS011;19910;42.652;23.332;2023-05-15T03:22:27;12.43;;;7.68;;
23175;SDS011;19910;42.652;23.332;2023-05-15T03:24:53;11.38;;;7.03;;
23175;SDS011;19910;42.652;23.332;2023-05-15T03:27:20;12.85;;;7.72;;
23175;SDS011;19910;42.652;23.332;2023-05-15T03:29:47;10.73;;;7.03;;
23175;SDS011;19910;42.652;23.332;2023-05-15T03:32:15;12.48;;;7.75;;
23175;SDS011;19910;42.652;23.332;2023-05-15T03:34:42;13.70;;;8.07;;
23175;SDS011;19910;42.652;23.332;2023-05-15T03:37:08;12.95;;;8.55;;
23175;SDS011;19910;42.652;23.332;2023-05-15T03:39:36;14.95;;;7.45;;
23175;SDS011;19910;42.652;23.332;2023-05-15T03:42:03;16.50;;;8.60;;
23175;SDS011;19910;42.652;23.332;2023-05-15T03:44:30;18.30;;;8.70;;
23175;SDS011;19910;42.652;23.332;2023-05-15T03:46:57;16.02;;;8.98;;
23175;SDS011;19910;42.652;23.332;2023-05-15T03:49:24;17.92;;;9.75;;
23175;SDS011;19910;42.652;23.332;2023-05-15T03:51:51;16.05;;;9.50;;
23175;SDS011;19910;42.652;23.332;2023-05-15T03:54:17;18.52;;;8.50;;
23175;SDS011;19910;42.652;23.332;2023-05-15T03:56:46;14.25;;;8.93;;
23175;SDS011;19910;42.652;23.332;2023-05-15T03:59:12;16.88;;;8.50;;
23175;SDS011;19910;42.652;23.332;2023-05-15T04:01:39;15.75;;;8.20;;
23175;SDS011;19910;42.652;23.332;2023-05-15T04:04:06;19.85;;;9.77;;
23175;SDS011;19910;42.652;23.332;2023-05-15T04:06:33;14.13;;;8.13;;
23175;SDS011;19910;42.652;23.332;2023-05-15T04:09:00;13.63;;;8.15;;
23175;SDS011;19910;42.652;23.332;2023-05-15T04:11:26;12.85;;;8.55;;
23175;SDS011;19910;42.652;23.332;2023-05-15T04:13:55;12.38;;;7.85;;
23175;SDS011;19910;42.652;23.332;2023-05-15T04:16:21;14.90;;;8.85;;
23175;SDS011;19910;42.652;23.332;2023-05-15T04:18:48;13.27;;;8.30;;
23175;SDS011;19910;42.652;23.332;2023-05-15T04:21:15;17.48;;;9.80;;
23175;SDS011;19910;42.652;23.332;2023-05-15T04:23:42;14.20;;;7.90;;
23175;SDS011;19910;42.652;23.332;2023-05-15T04:26:08;13.07;;;7.70;;
23175;SDS011;19910;42.652;23.332;2023-05-15T04:28:35;13.43;;;7.63;;
23175;SDS011;19910;42.652;23.332;2023-05-15T04:31:03;13.60;;;7.95;;
23175;SDS011;19910;42.652;23.332;2023-05-15T04:33:31;13.75;;;8.75;;
23175;SDS011;19910;42.652;23.332;2023-05-15T04:35:57;11.75;;;7.43;;
23175;SDS011;19910;42.652;23.332;2023-05-15T04:38:24;13.95;;;7.68;;
23175;SDS011;19910;42.652;23.332;2023-05-15T04:40:51;13.68;;;8.43;;
23175;SDS011;19910;42.652;23.332;2023-05-15T04:43:18;19.60;;;8.63;;
23175;SDS011;19910;42.652;23.332;2023-05-15T04:45:45;17.13;;;10.38;;
23175;SDS011;19910;42.652;23.332;2023-05-15T04:48:13;18.85;;;10.27;;
23175;SDS011;19910;42.652;23.332;2023-05-15T04:50:39;15.02;;;8.65;;
23175;SDS011;19910;42.652;23.332;2023-05-15T04:53:06;13.60;;;9.15;;
23175;SDS011;19910;42.652;23.332;2023-05-15T04:55:33;13.27;;;9.13;;
23175;SDS011;19910;42.652;23.332;2023-05-15T04:58:00;11.93;;;8.35;;
23175;SDS011;19910;42.652;23.332;2023-05-15T05:00:27;18.85;;;8.82;;
23175;SDS011;19910;42.652;23.332;2023-05-15T05:02:53;13.45;;;7.38;;
23175;SDS011;19910;42.652;23.332;2023-05-15T05:05:21;14.95;;;7.45;;
23175;SDS011;19910;42.652;23.332;2023-05-15T05:07:48;15.60;;;9.05;;
23175;SDS011;19910;42.652;23.332;2023-05-15T05:10:16;16.63;;;9.27;;
23175;SDS011;19910;42.652;23.332;2023-05-15T05:12:43;12.60;;;8.05;;
23175;SDS011;19910;42.652;23.332;2023-05-15T05:15:09;12.73;;;7.82;;
23175;SDS011;19910;42.652;23.332;2023-05-15T05:17:36;15.43;;;9.23;;
23175;SDS011;19910;42.652;23.332;2023-05-15T05:20:04;18.48;;;8.73;;
23175;SDS011;19910;42.652;23.332;2023-05-15T05:22:34;16.77;;;7.90;;
23175;SDS011;19910;42.652;23.332;2023-05-15T05:25:01;16.33;;;9.88;;
23175;SDS011;19910;42.652;23.332;2023-05-15T05:27:28;19.95;;;9.90;;
23175;SDS011;19910;42.652;23.332;2023-05-15T05:29:54;14.68;;;9.48;;
23175;SDS011;19910;42.652;23.332;2023-05-15T05:32:21;17.00;;;9.88;;
23175;SDS011;19910;42.652;23.332;2023-05-15T05:34:48;16.70;;;9.00;;
23175;SDS011;19910;42.652;23.332;2023-05-15T05:37:14;13.63;;;9.18;;
23175;SDS011;19910;42.652;23.332;2023-05-15T05:39:43;17.15;;;10.32;;
23175;SDS011;19910;42.652;23.332;2023-05-15T05:42:11;20.17;;;12.57;;
23175;SDS011;19910;42.652;23.332;2023-05-15T05:44:37;15.55;;;10.45;;
23175;SDS011;19910;42.652;23.332;2023-05-15T05:47:04;18.58;;;11.43;;
23175;SDS011;19910;42.652;23.332;2023-05-15T05:49:31;20.75;;;11.02;;
23175;SDS011;19910;42.652;23.332;2023-05-15T05:52:03;17.13;;;11.10;;
23175;SDS011;19910;42.652;23.332;2023-05-15T05:54:31;12.65;;;8.07;;
23175;SDS011;19910;42.652;23.332;2023-05-15T05:57:00;19.80;;;9.23;;
23175;SDS011;19910;42.652;23.332;2023-05-15T05:59:26;16.83;;;9.20;;
23175;SDS011;19910;42.652;23.332;2023-05-15T06:01:54;9.63;;;6.60;;
23175;SDS011;19910;42.652;23.332;2023-05-15T06:04:20;7.63;;;5.80;;
23175;SDS011;19910;42.652;23.332;2023-05-15T06:06:47;9.85;;;6.82;;
23175;SDS011;19910;42.652;23.332;2023-05-15T06:09:14;13.88;;;9.23;;
23175;SDS011;19910;42.652;23.332;2023-05-15T06:11:42;10.93;;;7.28;;
23175;SDS011;19910;42.652;23.332;2023-05-15T06:14:11;13.35;;;8.43;;
23175;SDS011;19910;42.652;23.332;2023-05-15T06:16:37;15.75;;;8.75;;
23175;SDS011;19910;42.652;23.332;2023-05-15T06:19:04;13.25;;;7.55;;
23175;SDS011;19910;42.652;23.332;2023-05-15T06:21:31;14.85;;;9.23;;
23175;SDS011;19910;42.652;23.332;2023-05-15T06:23:58;16.23;;;10.63;;
23175;SDS011;19910;42.652;23.332;2023-05-15T06:26:25;6.07;;;4.15;;
23175;SDS011;19910;42.652;23.332;2023-05-15T06:28:52;8.80;;;5.57;;
23175;SDS011;19910;42.652;23.332;2023-05-15T06:31:20;7.97;;;5.70;;
23175;SDS011;19910;42.652;23.332;2023-05-15T06:33:46;8.98;;;5.18;;
23175;SDS011;19910;42.652;23.332;2023-05-15T06:36:13;6.90;;;4.82;;
23175;SDS011;19910;42.652;23.332;2023-05-15T06:38:40;7.93;;;4.97;;
23175;SDS011;19910;42.652;23.332;2023-05-15T06:41:07;10.05;;;6.72;;
23175;SDS011;19910;42.652;23.332;2023-05-15T06:43:33;6.80;;;4.57;;
23175;SDS011;19910;42.652;23.332;2023-05-15T06:46:00;8.43;;;5.05;;
23175;SDS011;19910;42.652;23.332;2023-05-15T06:48:28;5.82;;;4.15;;
23175;SDS011;19910;42.652;23.332;2023-05-15T06:50:55;8.65;;;4.82;;
23175;SDS011;19910;42.652;23.332;2023-05-15T06:53:22;10.23;;;5.75;;
23175;SDS011;19910;42.652;23.332;2023-05-15T06:55:48;10.50;;;7.03;;
23175;SDS011;19910;42.652;23.332;2023-05-15T06:58:15;8.50;;;5.18;;
23175;SDS011;19910;42.652;23.332;2023-05-15T07:00:42;8.80;;;5.25;;
23175;SDS011;19910;42.652;23.332;2023-05-15T07:03:09;12.55;;;8.73;;
23175;SDS011;19910;42.652;23.332;2023-05-15T07:05:37;15.75;;;8.05;;
23175;SDS011;19910;42.652;23.332;2023-05-15T07:08:04;10.77;;;7.28;;
23175;SDS011;19910;42.652;23.332;2023-05-15T07:10:30;12.98;;;7.88;;
23175;SDS011;19910;42.652;23.332;2023-05-15T07:12:57;12.02;;;8.13;;
23175;SDS011;19910;42.652;23.332;2023-05-15T07:15:24;14.02;;;7.03;;
23175;SDS011;19910;42.652;23.332;2023-05-15T07:17:51;11.57;;;7.80;;
23175;SDS011;19910;42.652;23.332;2023-05-15T07:20:17;17.73;;;8.55;;
23175;SDS011;19910;42.652;23.332;2023-05-15T07:22:46;10.65;;;5.30;;
23175;SDS011;19910;42.652;23.332;2023-05-15T07:25:12;7.15;;;4.13;;
23175;SDS011;19910;42.652;23.332;2023-05-15T07:27:40;12.65;;;5.75;;
23175;SDS011;19910;42.652;23.332;2023-05-15T07:30:07;7.90;;;4.63;;
23175;SDS011;19910;42.652;23.332;2023-05-15T07:32:34;17.50;;;6.78;;
23175;SDS011;19910;42.652;23.332;2023-05-15T07:35:01;14.65;;;7.38;;
23175;SDS011;19910;42.652;23.332;2023-05-15T07:37:29;11.57;;;7.43;;
23175;SDS011;19910;42.652;23.332;2023-05-15T07:39:57;12.32;;;6.38;;
23175;SDS011;19910;42.652;23.332;2023-05-15T07:42:24;12.50;;;6.50;;
23175;SDS011;19910;42.652;23.332;2023-05-15T07:44:51;18.20;;;10.45;;
23175;SDS011;19910;42.652;23.332;2023-05-15T07:47:18;15.85;;;7.85;;
23175;SDS011;19910;42.652;23.332;2023-05-15T07:49:44;21.83;;;11.27;;
23175;SDS011;19910;42.652;23.332;2023-05-15T07:52:11;16.55;;;10.40;;
23175;SDS011;19910;42.652;23.332;2023-05-15T07:54:38;19.10;;;12.10;;
23175;SDS011;19910;42.652;23.332;2023-05-15T07:57:07;20.88;;;12.07;;
23175;SDS011;19910;42.652;23.332;2023-05-15T07:59:34;18.60;;;13.15;;
23175;SDS011;19910;42.652;23.332;2023-05-15T08:02:01;20.20;;;9.38;;
23175;SDS011;19910;42.652;23.332;2023-05-15T08:04:28;20.75;;;13.48;;
23175;SDS011;19910;42.652;23.332;2023-05-15T08:06:55;15.85;;;10.25;;
23175;SDS011;19910;42.652;23.332;2023-05-15T08:09:22;15.52;;;9.65;;
23175;SDS011;19910;42.652;23.332;2023-05-15T08:11:48;19.63;;;10.38;;
23175;SDS011;19910;42.652;23.332;2023-05-15T08:14:16;21.55;;;11.50;;
23175;SDS011;19910;42.652;23.332;2023-05-15T08:16:43;23.00;;;13.48;;
23175;SDS011;19910;42.652;23.332;2023-05-15T08:19:10;21.05;;;13.60;;
23175;SDS011;19910;42.652;23.332;2023-05-15T08:21:37;16.05;;;9.18;;
23175;SDS011;19910;42.652;23.332;2023-05-15T08:24:05;19.90;;;10.18;;
23175;SDS011;19910;42.652;23.332;2023-05-15T08:26:33;16.30;;;9.52;;
23175;SDS011;19910;42.652;23.332;2023-05-15T08:29:00;23.35;;;13.65;;
23175;SDS011;19910;42.652;23.332;2023-05-15T08:31:28;19.40;;;11.93;;
23175;SDS011;19910;42.652;23.332;2023-05-15T08:33:55;18.95;;;10.15;;
23175;SDS011;19910;42.652;23.332;2023-05-15T08:36:21;20.60;;;10.48;;
23175;SDS011;19910;42.652;23.332;2023-05-15T08:38:48;21.25;;;14.05;;
23175;SDS011;19910;42.652;23.332;2023-05-15T08:41:17;15.50;;;9.80;;
23175;SDS011;19910;42.652;23.332;2023-05-15T08:43:57;13.32;;;7.95;;
23175;SDS011;19910;42.652;23.332;2023-05-15T08:46:29;15.15;;;8.07;;
23175;SDS011;19910;42.652;23.332;2023-05-15T08:48:57;20.08;;;10.38;;
23175;SDS011;19910;42.652;23.332;2023-05-15T08:51:27;18.27;;;9.93;;
23175;SDS011;19910;42.652;23.332;2023-05-15T08:53:55;23.80;;;10.35;;
23175;SDS011;19910;42.652;23.332;2023-05-15T08:56:22;15.48;;;8.73;;
23175;SDS011;19910;42.652;23.332;2023-05-15T08:58:49;14.18;;;8.27;;
23175;SDS011;19910;42.652;23.332;2023-05-15T09:01:16;18.35;;;9.13;;
23175;SDS011;19910;42.652;23.332;2023-05-15T09:03:44;17.13;;;9.05;;
23175;SDS011;19910;42.652;23.332;2023-05-15T09:06:11;14.15;;;7.95;;
23175;SDS011;19910;42.652;23.332;2023-05-15T09:08:39;15.52;;;7.95;;
23175;SDS011;19910;42.652;23.332;2023-05-15T09:11:07;18.15;;;8.85;;
23175;SDS011;19910;42.652;23.332;2023-05-15T09:13:35;10.82;;;6.43;;
23175;SDS011;19910;42.652;23.332;2023-05-15T09:16:01;12.32;;;7.72;;
23175;SDS011;19910;42.652;23.332;2023-05-15T09:18:28;19.25;;;9.63;;
23175;SDS011;19910;42.652;23.332;2023-05-15T09:21:05;17.40;;;12.00;;
23175;SDS011;19910;42.652;23.332;2023-05-15T09:23:47;21.35;;;12.88;;
23175;SDS011;19910;42.652;23.332;2023-05-15T09:26:14;18.02;;;9.80;;
23175;SDS011;19910;42.652;23.332;2023-05-15T09:28:40;17.15;;;12.10;;
23175;SDS011;19910;42.652;23.332;2023-05-15T09:31:07;15.63;;;11.30;;
23175;SDS011;19910;42.652;23.332;2023-05-15T09:33:34;20.08;;;10.05;;
23175;SDS011;19910;42.652;23.332;2023-05-15T09:36:02;14.88;;;8.68;;
23175;SDS011;19910;42.652;23.332;2023-05-15T09:38:32;19.85;;;8.70;;
23175;SDS011;19910;42.652;23.332;2023-05-15T09:41:00;16.58;;;8.20;;
23175;SDS011;19910;42.652;23.332;2023-05-15T09:43:28;16.00;;;8.68;;
23175;SDS011;19910;42.652;23.332;2023-05-15T09:45:58;20.35;;;8.10;;
23175;SDS011;19910;42.652;23.332;2023-05-15T09:48:25;19.90;;;10.60;;
23175;SDS011;19910;42.652;23.332;2023-05-15T09:50:53;17.30;;;10.18;;
23175;SDS011;19910;42.652;23.332;2023-05-15T09:53:20;15.60;;;8.35;;
23175;SDS011;19910;42.652;23.332;2023-05-15T09:55:49;19.48;;;8.88;;
23175;SDS011;19910;42.652;23.332;2023-05-15T09:58:18;20.90;;;9.70;;
23175;SDS011;19910;42.652;23.332;2023-05-15T10:00:45;18.85;;;13.05;;
23175;SDS011;19910;42.652;23.332;2023-05-15T10:03:12;17.55;;;11.95;;
23175;SDS011;19910;42.652;23.332;2023-05-15T10:05:39;17.08;;;8.68;;
23175;SDS011;19910;42.652;23.332;2023-05-15T10:08:07;17.35;;;9.52;;
23175;SDS011;19910;42.652;23.332;2023-05-15T10:10:33;20.27;;;9.95;;
23175;SDS011;19910;42.652;23.332;2023-05-15T10:13:02;19.67;;;12.38;;
23175;SDS011;19910;42.652;23.332;2023-05-15T10:15:30;18.83;;;9.70;;
23175;SDS011;19910;42.652;23.332;2023-05-15T10:17:57;17.38;;;9.23;;
23175;SDS011;19910;42.652;23.332;2023-05-15T10:20:24;13.55;;;8.23;;
23175;SDS011;19910;42.652;23.332;2023-05-15T10:22:52;17.23;;;8.93;;
23175;SDS011;19910;42.652;23.332;2023-05-15T10:25:22;12.82;;;8.57;;
23175;SDS011;19910;42.652;23.332;2023-05-15T10:27:53;13.68;;;8.63;;
23175;SDS011;19910;42.652;23.332;2023-05-15T10:30:22;15.43;;;9.18;;
23175;SDS011;19910;42.652;23.332;2023-05-15T10:32:50;17.92;;;9.73;;
23175;SDS011;19910;42.652;23.332;2023-05-15T10:35:17;16.17;;;8.57;;
23175;SDS011;19910;42.652;23.332;2023-05-15T10:37:45;16.48;;;9.02;;
23175;SDS011;19910;42.652;23.332;2023-05-15T10:40:14;13.27;;;8.23;;
23175;SDS011;19910;42.652;23.332;2023-05-15T10:42:43;12.98;;;9.15;;
23175;SDS011;19910;42.652;23.332;2023-05-15T10:45:11;17.08;;;10.90;;
23175;SDS011;19910;42.652;23.332;2023-05-15T10:47:40;17.05;;;11.00;;
23175;SDS011;19910;42.652;23.332;2023-05-15T10:50:08;14.43;;;10.60;;
23175;SDS011;19910;42.652;23.332;2023-05-15T10:52:36;14.15;;;9.57;;
23175;SDS011;19910;42.652;23.332;2023-05-15T10:55:05;12.98;;;10.05;;
23175;SDS011;19910;42.652;23.332;2023-05-15T10:57:33;16.35;;;10.80;;
23175;SDS011;19910;42.652;23.332;2023-05-15T11:00:00;16.83;;;10.07;;
23175;SDS011;19910;42.652;23.332;2023-05-15T11:02:29;19.05;;;11.05;;
23175;SDS011;19910;42.652;23.332;2023-05-15T11:05:04;14.63;;;9.90;;
23175;SDS011;19910;42.652;23.332;2023-05-15T11:07:32;16.42;;;11.13;;
23175;SDS011;19910;42.652;23.332;2023-05-15T11:09:59;13.80;;;9.80;;
23175;SDS011;19910;42.652;23.332;2023-05-15T11:12:25;18.33;;;11.25;;
23175;SDS011;19910;42.652;23.332;2023-05-15T11:15:23;19.58;;;11.02;;
23175;SDS011;19910;42.652;23.332;2023-05-15T11:18:03;22.77;;;12.20;;
23175;SDS011;19910;42.652;23.332;2023-05-15T11:20:31;15.27;;;11.18;;
23175;SDS011;19910;42.652;23.332;2023-05-15T11:22:59;13.55;;;10.38;;
23175;SDS011;19910;42.652;23.332;2023-05-15T11:25:27;18.63;;;10.95;;
23175;SDS011;19910;42.652;23.332;2023-05-15T11:27:57;15.27;;;10.60;;
23175;SDS011;19910;42.652;23.332;2023-05-15T11:30:36;17.48;;;10.73;;
23175;SDS011;19910;42.652;23.332;2023-05-15T11:33:04;17.38;;;10.88;;
23175;SDS011;19910;42.652;23.332;2023-05-15T11:35:34;18.25;;;11.20;;
23175;SDS011;19910;42.652;23.332;2023-05-15T11:38:04;18.02;;;10.15;;
23175;SDS011;19910;42.652;23.332;2023-05-15T11:40:42;19.17;;;10.45;;
23175;SDS011;19910;42.652;23.332;2023-05-15T11:43:17;14.57;;;10.07;;
23175;SDS011;19910;42.652;23.332;2023-05-15T11:45:45;15.68;;;9.82;;
23175;SDS011;19910;42.652;23.332;2023-05-15T11:48:14;14.63;;;11.02;;
23175;SDS011;19910;42.652;23.332;2023-05-15T11:50:42;18.10;;;10.43;;
23175;SDS011;19910;42.652;23.332;2023-05-15T11:53:10;14.98;;;9.93;;
23175;SDS011;19910;42.652;23.332;2023-05-15T11:55:38;14.55;;;9.88;;
23175;SDS011;19910;42.652;23.332;2023-05-15T11:58:09;16.23;;;10.85;;
23175;SDS011;19910;42.652;23.332;2023-05-15T12:00:39;17.38;;;10.57;;
23175;SDS011;19910;42.652;23.332;2023-05-15T12:03:15;18.08;;;10.35;;
23175;SDS011;19910;42.652;23.332;2023-05-15T12:05:44;16.70;;;11.13;;
23175;SDS011;19910;42.652;23.332;2023-05-15T12:08:12;15.70;;;10.88;;
23175;SDS011;19910;42.652;23.332;2023-05-15T12:10:39;20.73;;;11.35;;
23175;SDS011;19910;42.652;23.332;2023-05-15T12:13:07;16.35;;;10.27;;
23175;SDS011;19910;42.652;23.332;2023-05-15T12:15:35;18.25;;;10.82;;
23175;SDS011;19910;42.652;23.332;2023-05-15T12:18:05;16.13;;;10.82;;
23175;SDS011;19910;42.652;23.332;2023-05-15T12:20:33;14.43;;;10.05;;
23175;SDS011;19910;42.652;23.332;2023-05-15T12:23:01;15.20;;;10.15;;
23175;SDS011;19910;42.652;23.332;2023-05-15T12:25:29;12.13;;;9.15;;
23175;SDS011;19910;42.652;23.332;2023-05-15T12:27:57;20.58;;;10.35;;
23175;SDS011;19910;42.652;23.332;2023-05-15T12:30:25;11.60;;;9.32;;
23175;SDS011;19910;42.652;23.332;2023-05-15T12:32:52;16.98;;;10.18;;
23175;SDS011;19910;42.652;23.332;2023-05-15T12:35:21;17.55;;;9.23;;
23175;SDS011;19910;42.652;23.332;2023-05-15T12:37:48;19.00;;;10.40;;
23175;SDS011;19910;42.652;23.332;2023-05-15T12:40:15;23.58;;;10.13;;
23175;SDS011;19910;42.652;23.332;2023-05-15T12:42:49;14.93;;;9.82;;
23175;SDS011;19910;42.652;23.332;2023-05-15T12:45:18;14.68;;;10.13;;
23175;SDS011;19910;42.652;23.332;2023-05-15T12:47:46;13.40;;;9.50;;
23175;SDS011;19910;42.652;23.332;2023-05-15T12:50:15;12.85;;;9.35;;
23175;SDS011;19910;42.652;23.332;2023-05-15T12:52:47;17.85;;;10.52;;
23175;SDS011;19910;42.652;23.332;2023-05-15T12:55:16;12.55;;;9.43;;
23175;SDS011;19910;42.652;23.332;2023-05-15T12:57:43;14.15;;;9.98;;
23175;SDS011;19910;42.652;23.332;2023-05-15T13:00:11;15.50;;;10.05;;
23175;SDS011;19910;42.652;23.332;2023-05-15T13:02:41;15.88;;;10.05;;
23175;SDS011;19910;42.652;23.332;2023-05-15T13:05:08;16.88;;;10.52;;
23175;SDS011;19910;42.652;23.332;2023-05-15T13:07:35;15.13;;;9.32;;
23175;SDS011;19910;42.652;23.332;2023-05-15T13:10:07;17.52;;;9.93;;
23175;SDS011;19910;42.652;23.332;2023-05-15T13:12:35;20.80;;;10.30;;
23175;SDS011;19910;42.652;23.332;2023-05-15T13:15:02;15.50;;;10.00;;
23175;SDS011;19910;42.652;23.332;2023-05-15T13:17:30;18.45;;;9.73;;
23175;SDS011;19910;42.652;23.332;2023-05-15T13:19:59;17.27;;;9.73;;
23175;SDS011;19910;42.652;23.332;2023-05-15T13:22:25;21.17;;;9.52;;
23175;SDS011;19910;42.652;23.332;2023-05-15T13:24:52;18.65;;;9.23;;
23175;SDS011;19910;42.652;23.332;2023-05-15T13:27:20;12.88;;;8.35;;
23175;SDS011;19910;42.652;23.332;2023-05-15T13:29:47;14.85;;;8.00;;
23175;SDS011;19910;42.652;23.332;2023-05-15T13:32:14;16.58;;;7.68;;
23175;SDS011;19910;42.652;23.332;2023-05-15T13:34:41;11.00;;;7.38;;
23175;SDS011;19910;42.652;23.332;2023-05-15T13:37:08;11.98;;;7.22;;
23175;SDS011;19910;42.652;23.332;2023-05-15T13:39:34;14.60;;;7.20;;
23175;SDS011;19910;42.652;23.332;2023-05-15T13:42:01;11.77;;;6.82;;
23175;SDS011;19910;42.652;23.332;2023-05-15T13:44:29;12.18;;;7.40;;
23175;SDS011;19910;42.652;23.332;2023-05-15T13:46:56;11.68;;;7.28;;
23175;SDS011;19910;42.652;23.332;2023-05-15T13:49:28;12.07;;;7.05;;
23175;SDS011;19910;42.652;23.332;2023-05-15T13:51:54;11.05;;;6.82;;
23175;SDS011;19910;42.652;23.332;2023-05-15T13:54:21;8.80;;;6.38;;
23175;SDS011;19910;42.652;23.332;2023-05-15T13:56:48;16.73;;;7.43;;
23175;SDS011;19910;42.652;23.332;2023-05-15T13:59:15;10.63;;;6.70;;
23175;SDS011;19910;42.652;23.332;2023-05-15T14:01:43;13.88;;;6.85;;
23175;SDS011;19910;42.652;23.332;2023-05-15T14:04:10;12.02;;;6.72;;
23175;SDS011;19910;42.652;23.332;2023-05-15T14:06:36;12.05;;;7.40;;
23175;SDS011;19910;42.652;23.332;2023-05-15T14:09:03;14.57;;;8.23;;
23175;SDS011;19910;42.652;23.332;2023-05-15T14:11:31;18.38;;;9.07;;
23175;SDS011;19910;42.652;23.332;2023-05-15T14:13:58;16.10;;;8.43;;
23175;SDS011;19910;42.652;23.332;2023-05-15T14:16:24;16.20;;;8.55;;
23175;SDS011;19910;42.652;23.332;2023-05-15T14:18:52;17.73;;;8.35;;
23175;SDS011;19910;42.652;23.332;2023-05-15T14:21:19;21.52;;;8.90;;
23175;SDS011;19910;42.652;23.332;2023-05-15T14:23:46;13.50;;;8.88;;
23175;SDS011;19910;42.652;23.332;2023-05-15T14:26:13;20.05;;;9.30;;